Vk Oceanus — 3EMR8 — position and weather

sailwx.info

Track history (hours):
 
Tides and Currents Weather Stations Pressure Air Temp Water Temp Dewpoint Dewpoint Depression Visibility Wind Speed Wind Dir Waves Ship Positions

Vk Oceanus

Last reported at 2019-Nov-14 01:46 UTC. Time now 2019-Nov-21 06:32 UTC.
Position N 37°58' W 009°53'.

Length 336 m; draft 13.1 m.

Type: Cargo ship. MMSI: 351249000.

Date/timePositionNaut miles runAvg speedWind from/ knotsBaromVisibWave heightAir tempDewpointWater temp
2019-Nov-14 01:46N 37°58' W 009°53'4720.5
2019-Nov-13 23:30N 38°43' W 010°06'4120.4
2019-Nov-13 21:30N 39°24' W 010°06'66517.5
2019-Nov-12 07:30N 49°37' W 004°03'2717.8
2019-Nov-12 06:00N 49°49' W 003°26'4417.7
2019-Nov-12 03:30N 50°05' W 002°22'2121.2
2019-Nov-12 02:31N 50°13' W 001°51'2221.8
2019-Nov-12 01:31N 50°23' W 001°21'2416.2
2019-Nov-12 00:00N 50°42' W 000°57'22 8.9
2019-Nov-11 21:30N 50°54' W 001°26'1 1.4
2019-Nov-11 20:59N 50°54' W 001°27'0 0.0
2019-Nov-11 18:26N 50°54' W 001°27'0 0.0
2019-Nov-11 17:29N 50°54' W 001°27'0 0.0
2019-Nov-11 16:59N 50°54' W 001°27'0 0.0
2019-Nov-11 16:26N 50°54' W 001°27'0 0.0
2019-Nov-11 14:59N 50°54' W 001°27'0 0.0
2019-Nov-11 12:59N 50°54' W 001°27'0 0.0
2019-Nov-11 11:56N 50°54' W 001°27'0 0.0
2019-Nov-11 10:29N 50°54' W 001°27'0 0.0
2019-Nov-11 08:59N 50°54' W 001°27'0 0.0
2019-Nov-11 05:59N 50°54' W 001°27'0 0.0
2019-Nov-11 05:29N 50°54' W 001°27'0 0.0
2019-Nov-11 03:29N 50°54' W 001°27'0 0.0
2019-Nov-11 02:29N 50°54' W 001°27'0 0.0
2019-Nov-11 01:59N 50°54' W 001°27'0 0.0
2019-Nov-11 00:59N 50°54' W 001°27'0 0.0
2019-Nov-11 00:29N 50°54' W 001°27'0 0.0
2019-Nov-10 23:29N 50°54' W 001°27'0 0.0
2019-Nov-10 22:29N 50°54' W 001°27'0 0.0
2019-Nov-10 20:59N 50°54' W 001°27'0 0.0
2019-Nov-10 18:29N 50°54' W 001°27'0 0.0
2019-Nov-10 15:56N 50°54' W 001°27'0 0.0
2019-Nov-10 08:59N 50°54' W 001°27'0 0.0
2019-Nov-10 05:59N 50°54' W 001°27'0 0.0
2019-Nov-10 03:59N 50°54' W 001°27'0 0.0
2019-Nov-10 00:59N 50°54' W 001°27'1 0.4
2019-Nov-09 23:30N 50°54' W 001°26'2 3.3
2019-Nov-09 23:01N 50°53' W 001°24'61 9.4
2019-Nov-09 16:30N 50°01' W 000°35'9 9.0
2019-Nov-09 15:30N 49°53' W 000°29'36 7.1
2019-Nov-09 10:28N 49°27' E 000°10'0 0.0
2019-Nov-09 09:58N 49°27' E 000°10'0 0.0
2019-Nov-09 05:28N 49°27' E 000°10'0 0.0
2019-Nov-09 03:28N 49°27' E 000°10'0 0.0
2019-Nov-09 02:58N 49°27' E 000°10'0 0.0
2019-Nov-09 01:58N 49°27' E 000°10'0 0.0
2019-Nov-09 00:28N 49°27' E 000°10'0 0.0
2019-Nov-08 23:28N 49°27' E 000°10'0 0.0
2019-Nov-08 21:58N 49°27' E 000°10'0 0.0
2019-Nov-08 21:28N 49°27' E 000°10'0 0.0
2019-Nov-08 20:58N 49°27' E 000°10'0 0.0
2019-Nov-08 20:28N 49°27' E 000°10'0 0.0
2019-Nov-08 17:28N 49°27' E 000°10'0 0.0
2019-Nov-08 16:28N 49°27' E 000°10'17 3.1
2019-Nov-08 11:00N 49°36' W 000°13'1 0.7
2019-Nov-08 09:28N 49°37' W 000°13'0 0.0
2019-Nov-08 08:58N 49°37' W 000°13'0 0.2
2019-Nov-08 08:28N 49°37' W 000°13'0 0.1
2019-Nov-08 06:58N 49°37' W 000°13'59 7.0
2019-Nov-07 22:31N 50°23' E 000°45'1211.6
2019-Nov-07 21:30N 50°35' E 000°43'6510.8
2019-Nov-07 15:30N 51°22' E 001°53'1111.3
2019-Nov-07 14:30N 51°31' E 002°04'2710.9
2019-Nov-07 12:00N 51°52' E 002°33'1110.9
2019-Nov-07 11:00N 52°01' E 002°44'3810.9
2019-Nov-07 07:29N 52°31' E 003°22'150 8.6
2019-Nov-06 14:04N 53°54' E 006°51'1 8.7
2019-Nov-06 14:00N 53°54' E 006°52'7 8.9
2019-Nov-06 13:12N 53°56' E 007°03'4810.3
2019-Nov-06 08:31N 53°59' E 008°25'2010.1
2019-Nov-06 06:30N 53°51' E 008°57'12 8.2
2019-Nov-06 05:00N 53°52' E 009°17'1111.4
2019-Nov-06 04:00N 53°43' E 009°29'19 9.6
2019-Nov-06 02:00N 53°32' E 009°56'2 0.9
2019-Nov-06 00:00N 53°30' E 009°56'0 0.0
2019-Nov-05 22:30N 53°30' E 009°56'0 0.0
2019-Nov-05 18:30N 53°30' E 009°56'0 0.0
2019-Nov-05 18:00N 53°30' E 009°56'0 0.0
2019-Nov-05 17:30N 53°30' E 009°56'0 0.0
2019-Nov-05 15:00N 53°30' E 009°56'0 0.0
2019-Nov-05 13:00N 53°30' E 009°56'0 0.0
2019-Nov-05 11:30N 53°30' E 009°56'0 0.0
2019-Nov-05 11:00N 53°30' E 009°56'0 0.0
2019-Nov-05 08:30N 53°30' E 009°56'0 0.0
2019-Nov-05 06:00N 53°30' E 009°56'0 0.0
2019-Nov-05 03:30N 53°30' E 009°56'0 0.0
2019-Nov-05 00:30N 53°30' E 009°56'0 0.0
2019-Nov-05 00:00N 53°30' E 009°56'0 0.0
2019-Nov-04 23:00N 53°30' E 009°56'12 3.3
2019-Nov-04 19:30N 53°35' E 009°38'18811.4
2019-Nov-04 02:56N 53°05' E 004°27'  
Track history (hours):
 
Tides and Currents Weather Stations Pressure Air Temp Water Temp Dewpoint Dewpoint Depression Visibility Wind Speed Wind Dir Waves Ship Positions

Vk Oceanus

Last reported at 2019-Nov-14 01:46 UTC. Time now 2019-Nov-21 06:32 UTC.
Position N 37°58' W 009°53'.

Length 336 m; draft 13.1 m.

Type: Cargo ship. MMSI: 351249000.

Date/timePositionNaut miles runAvg speedWind from/ knotsBaromVisibWave heightAir tempDewpointWater temp
2019-Nov-14 01:46N 37°58' W 009°53'4720.5
2019-Nov-13 23:30N 38°43' W 010°06'4120.4
2019-Nov-13 21:30N 39°24' W 010°06'66517.5
2019-Nov-12 07:30N 49°37' W 004°03'2717.8
2019-Nov-12 06:00N 49°49' W 003°26'4417.7
2019-Nov-12 03:30N 50°05' W 002°22'2121.2
2019-Nov-12 02:31N 50°13' W 001°51'2221.8
2019-Nov-12 01:31N 50°23' W 001°21'2416.2
2019-Nov-12 00:00N 50°42' W 000°57'22 8.9
2019-Nov-11 21:30N 50°54' W 001°26'1 1.4
2019-Nov-11 20:59N 50°54' W 001°27'0 0.0
2019-Nov-11 18:26N 50°54' W 001°27'0 0.0
2019-Nov-11 17:29N 50°54' W 001°27'0 0.0
2019-Nov-11 16:59N 50°54' W 001°27'0 0.0
2019-Nov-11 16:26N 50°54' W 001°27'0 0.0
2019-Nov-11 14:59N 50°54' W 001°27'0 0.0
2019-Nov-11 12:59N 50°54' W 001°27'0 0.0
2019-Nov-11 11:56N 50°54' W 001°27'0 0.0
2019-Nov-11 10:29N 50°54' W 001°27'0 0.0
2019-Nov-11 08:59N 50°54' W 001°27'0 0.0
2019-Nov-11 05:59N 50°54' W 001°27'0 0.0
2019-Nov-11 05:29N 50°54' W 001°27'0 0.0
2019-Nov-11 03:29N 50°54' W 001°27'0 0.0
2019-Nov-11 02:29N 50°54' W 001°27'0 0.0
2019-Nov-11 01:59N 50°54' W 001°27'0 0.0
2019-Nov-11 00:59N 50°54' W 001°27'0 0.0
2019-Nov-11 00:29N 50°54' W 001°27'0 0.0
2019-Nov-10 23:29N 50°54' W 001°27'0 0.0
2019-Nov-10 22:29N 50°54' W 001°27'0 0.0
2019-Nov-10 20:59N 50°54' W 001°27'0 0.0
2019-Nov-10 18:29N 50°54' W 001°27'0 0.0
2019-Nov-10 15:56N 50°54' W 001°27'0 0.0
2019-Nov-10 08:59N 50°54' W 001°27'0 0.0
2019-Nov-10 05:59N 50°54' W 001°27'0 0.0
2019-Nov-10 03:59N 50°54' W 001°27'0 0.0
2019-Nov-10 00:59N 50°54' W 001°27'1 0.4
2019-Nov-09 23:30N 50°54' W 001°26'2 3.3
2019-Nov-09 23:01N 50°53' W 001°24'61 9.4
2019-Nov-09 16:30N 50°01' W 000°35'9 9.0
2019-Nov-09 15:30N 49°53' W 000°29'36 7.1
2019-Nov-09 10:28N 49°27' E 000°10'0 0.0
2019-Nov-09 09:58N 49°27' E 000°10'0 0.0
2019-Nov-09 05:28N 49°27' E 000°10'0 0.0
2019-Nov-09 03:28N 49°27' E 000°10'0 0.0
2019-Nov-09 02:58N 49°27' E 000°10'0 0.0
2019-Nov-09 01:58N 49°27' E 000°10'0 0.0
2019-Nov-09 00:28N 49°27' E 000°10'0 0.0
2019-Nov-08 23:28N 49°27' E 000°10'0 0.0
2019-Nov-08 21:58N 49°27' E 000°10'0 0.0
2019-Nov-08 21:28N 49°27' E 000°10'0 0.0
2019-Nov-08 20:58N 49°27' E 000°10'0 0.0
2019-Nov-08 20:28N 49°27' E 000°10'0 0.0
2019-Nov-08 17:28N 49°27' E 000°10'0 0.0
2019-Nov-08 16:28N 49°27' E 000°10'17 3.1
2019-Nov-08 11:00N 49°36' W 000°13'1 0.7
2019-Nov-08 09:28N 49°37' W 000°13'0 0.0
2019-Nov-08 08:58N 49°37' W 000°13'0 0.2
2019-Nov-08 08:28N 49°37' W 000°13'0 0.1
2019-Nov-08 06:58N 49°37' W 000°13'59 7.0
2019-Nov-07 22:31N 50°23' E 000°45'1211.6
2019-Nov-07 21:30N 50°35' E 000°43'6510.8
2019-Nov-07 15:30N 51°22' E 001°53'1111.3
2019-Nov-07 14:30N 51°31' E 002°04'2710.9
2019-Nov-07 12:00N 51°52' E 002°33'1110.9
2019-Nov-07 11:00N 52°01' E 002°44'3810.9
2019-Nov-07 07:29N 52°31' E 003°22'150 8.6
2019-Nov-06 14:04N 53°54' E 006°51'1 8.7
2019-Nov-06 14:00N 53°54' E 006°52'7 8.9
2019-Nov-06 13:12N 53°56' E 007°03'4810.3
2019-Nov-06 08:31N 53°59' E 008°25'2010.1
2019-Nov-06 06:30N 53°51' E 008°57'12 8.2
2019-Nov-06 05:00N 53°52' E 009°17'1111.4
2019-Nov-06 04:00N 53°43' E 009°29'19 9.6
2019-Nov-06 02:00N 53°32' E 009°56'2 0.9
2019-Nov-06 00:00N 53°30' E 009°56'0 0.0
2019-Nov-05 22:30N 53°30' E 009°56'0 0.0
2019-Nov-05 18:30N 53°30' E 009°56'0 0.0
2019-Nov-05 18:00N 53°30' E 009°56'0 0.0
2019-Nov-05 17:30N 53°30' E 009°56'0 0.0
2019-Nov-05 15:00N 53°30' E 009°56'0 0.0
2019-Nov-05 13:00N 53°30' E 009°56'0 0.0
2019-Nov-05 11:30N 53°30' E 009°56'0 0.0
2019-Nov-05 11:00N 53°30' E 009°56'0 0.0
2019-Nov-05 08:30N 53°30' E 009°56'0 0.0
2019-Nov-05 06:00N 53°30' E 009°56'0 0.0
2019-Nov-05 03:30N 53°30' E 009°56'0 0.0
2019-Nov-05 00:30N 53°30' E 009°56'0 0.0
2019-Nov-05 00:00N 53°30' E 009°56'0 0.0
2019-Nov-04 23:00N 53°30' E 009°56'12 3.3
2019-Nov-04 19:30N 53°35' E 009°38'18811.4
2019-Nov-04 02:56N 53°05' E 004°27'  

Dump ship's entire track history